createdAt,value
2018-08-09T00:00:03.682Z,0.00
2018-08-09T00:02:03.825Z,0.00
2018-08-09T00:04:03.897Z,0.00
2018-08-09T00:05:03.461Z,0.00
2018-08-09T00:06:04.784Z,0.00
2018-08-09T00:07:03.390Z,0.00
2018-08-09T00:09:03.432Z,0.00
2018-08-09T00:10:03.739Z,0.00
2018-08-09T00:11:03.387Z,0.00
2018-08-09T00:12:03.508Z,0.00
2018-08-09T00:13:03.366Z,0.00
2018-08-09T00:14:03.381Z,0.00
2018-08-09T00:15:03.354Z,0.00
2018-08-09T00:16:03.335Z,0.00
2018-08-09T00:20:03.756Z,0.00
2018-08-09T00:21:03.252Z,0.00
2018-08-09T00:22:03.180Z,0.00
2018-08-09T00:23:03.190Z,0.00
2018-08-09T00:24:03.210Z,0.00
2018-08-09T00:25:03.190Z,0.00
2018-08-09T00:26:03.727Z,0.00
2018-08-09T00:27:03.221Z,0.00
2018-08-09T00:28:03.196Z,0.00
2018-08-09T00:30:03.081Z,0.00
2018-08-09T00:31:03.506Z,0.00
2018-08-09T00:32:03.510Z,0.00
2018-08-09T00:33:03.023Z,0.00
2018-08-09T00:34:02.987Z,0.00
2018-08-09T00:35:03.129Z,0.00
2018-08-09T00:36:02.969Z,0.00
2018-08-09T00:37:02.957Z,0.00
2018-08-09T00:38:03.557Z,0.00
2018-08-09T00:39:03.572Z,0.00
2018-08-09T00:40:03.464Z,0.00
2018-08-09T00:41:03.464Z,0.00
2018-08-09T00:42:03.002Z,0.00
2018-08-09T00:43:03.115Z,0.00
2018-08-09T00:44:03.655Z,0.00
2018-08-09T00:45:02.951Z,0.00
2018-08-09T00:47:02.993Z,0.00
2018-08-09T00:48:02.898Z,0.00
2018-08-09T00:49:03.386Z,0.00
2018-08-09T00:50:03.382Z,0.00
2018-08-09T00:51:02.900Z,0.00
2018-08-09T00:53:02.771Z,0.00
2018-08-09T00:54:02.760Z,0.00
2018-08-09T00:55:02.994Z,0.00
2018-08-09T00:56:04.287Z,0.00
2018-08-09T00:57:02.724Z,0.00
2018-08-09T00:58:02.714Z,0.00
2018-08-09T00:59:02.923Z,0.00
2018-08-09T01:00:02.878Z,0.00
2018-08-09T01:01:02.839Z,0.00
2018-08-09T01:02:03.504Z,0.00
2018-08-09T01:03:02.716Z,0.00
2018-08-09T01:04:02.813Z,0.00
2018-08-09T01:05:02.668Z,0.00
2018-08-09T01:06:02.769Z,0.00
2018-08-09T01:07:02.768Z,0.00
2018-08-09T01:08:02.794Z,0.00
2018-08-09T01:09:03.077Z,0.00
2018-08-09T01:10:02.824Z,0.00
2018-08-09T01:11:02.705Z,0.00
2018-08-09T01:12:02.710Z,0.00
2018-08-09T01:13:02.647Z,0.00
2018-08-09T01:14:02.767Z,0.00
2018-08-09T01:15:02.663Z,0.00
2018-08-09T01:17:02.966Z,0.00
2018-08-09T01:18:02.959Z,0.00
2018-08-09T01:19:02.510Z,0.00
2018-08-09T01:20:02.631Z,0.00
2018-08-09T01:21:02.591Z,0.00
2018-08-09T01:22:02.583Z,0.00
2018-08-09T01:23:02.661Z,0.00
2018-08-09T01:24:02.887Z,0.00
2018-08-09T01:25:02.500Z,0.00
2018-08-09T01:26:02.514Z,0.00
2018-08-09T01:27:02.560Z,0.00
2018-08-09T01:28:02.413Z,0.00
2018-08-09T01:29:02.562Z,0.00
2018-08-09T01:30:02.332Z,0.00
2018-08-09T01:31:02.776Z,0.00
2018-08-09T01:32:02.310Z,0.00
2018-08-09T01:33:02.293Z,0.00
2018-08-09T01:34:02.278Z,0.00
2018-08-09T01:35:02.420Z,0.00
2018-08-09T01:36:02.261Z,0.00
2018-08-09T01:37:02.243Z,0.00
2018-08-09T01:38:02.536Z,0.00
2018-08-09T01:39:02.224Z,0.00
2018-08-09T01:40:02.213Z,0.00
2018-08-09T01:41:02.347Z,0.00
2018-08-09T01:42:02.184Z,0.00
2018-08-09T01:43:02.172Z,0.00
2018-08-09T01:44:02.168Z,0.00
2018-08-09T01:46:02.436Z,0.00
2018-08-09T01:47:02.237Z,0.00
2018-08-09T01:48:02.113Z,0.00
2018-08-09T01:49:02.100Z,0.00
2018-08-09T01:50:02.154Z,0.00
2018-08-09T01:51:02.087Z,0.00
2018-08-09T01:52:02.067Z,0.00
2018-08-09T01:53:02.977Z,0.00
2018-08-09T01:54:02.043Z,0.00
2018-08-09T01:57:02.057Z,0.00
2018-08-09T01:58:02.001Z,0.00
2018-08-09T01:59:02.394Z,0.00
2018-08-09T02:00:01.977Z,0.00
2018-08-09T02:01:01.968Z,0.00
2018-08-09T02:02:01.950Z,0.00
2018-08-09T02:03:01.971Z,0.00
2018-08-09T02:04:01.927Z,0.00
2018-08-09T02:05:02.487Z,0.00
2018-08-09T02:06:02.071Z,0.00
2018-08-09T02:08:01.880Z,0.00
2018-08-09T02:09:01.870Z,0.00
2018-08-09T02:10:01.859Z,0.00
2018-08-09T02:11:02.492Z,0.00
2018-08-09T02:12:01.836Z,0.00
2018-08-09T02:13:01.827Z,0.00
2018-08-09T02:14:01.821Z,0.00
2018-08-09T02:15:01.800Z,0.00
2018-08-09T02:16:01.782Z,0.00
2018-08-09T02:17:03.327Z,0.00
2018-08-09T02:18:01.778Z,0.00
2018-08-09T02:19:01.749Z,0.00
2018-08-09T02:20:01.734Z,0.00
2018-08-09T02:21:01.826Z,0.00
2018-08-09T02:22:01.711Z,0.00
2018-08-09T02:23:03.254Z,0.00
2018-08-09T02:24:01.690Z,0.00
2018-08-09T02:25:01.677Z,0.00
2018-08-09T02:27:01.650Z,0.00
2018-08-09T02:30:01.962Z,0.00
2018-08-09T02:31:01.618Z,0.00
2018-08-09T02:32:01.891Z,0.00
2018-08-09T02:33:01.590Z,0.00
2018-08-09T02:34:01.581Z,0.00
2018-08-09T02:35:01.656Z,0.00
2018-08-09T02:38:01.524Z,0.00
2018-08-09T02:39:01.522Z,0.00
2018-08-09T02:41:02.400Z,0.00
2018-08-09T02:42:01.771Z,0.00
2018-08-09T02:43:01.559Z,0.00
2018-08-09T02:44:01.469Z,0.00
2018-08-09T02:45:01.469Z,0.00
2018-08-09T02:46:01.428Z,0.00
2018-08-09T02:48:01.499Z,0.00
2018-08-09T02:49:01.684Z,0.00
2018-08-09T02:51:01.365Z,0.00
2018-08-09T02:52:01.357Z,0.00
2018-08-09T02:53:01.341Z,0.00
2018-08-09T02:54:03.101Z,0.00
2018-08-09T02:55:01.381Z,0.00
2018-08-09T02:57:01.289Z,0.00
2018-08-09T02:58:01.291Z,0.00
2018-08-09T02:59:01.316Z,0.00
2018-08-09T03:00:02.166Z,0.00
2018-08-09T03:01:01.523Z,0.00
2018-08-09T03:02:01.249Z,0.00
2018-08-09T03:03:01.521Z,0.00
2018-08-09T03:04:01.215Z,0.00
2018-08-09T03:06:01.232Z,0.00
2018-08-09T03:07:01.182Z,0.00
2018-08-09T03:08:01.162Z,0.00
2018-08-09T03:09:01.196Z,0.00
2018-08-09T03:10:01.441Z,0.00
2018-08-09T03:12:01.257Z,0.00
2018-08-09T03:13:01.108Z,0.00
2018-08-09T03:14:01.096Z,0.00
2018-08-09T03:15:01.073Z,0.00
2018-08-09T03:16:01.063Z,0.00
2018-08-09T03:17:01.364Z,0.00
2018-08-09T03:19:02.595Z,4.00
2018-08-09T03:20:01.004Z,4.00
2018-08-09T03:21:01.048Z,0.00
2018-08-09T03:22:00.983Z,4.00
2018-08-09T03:23:00.979Z,4.00
2018-08-09T03:24:01.283Z,4.00
2018-08-09T03:25:01.147Z,8.00
2018-08-09T03:26:00.937Z,4.00
2018-08-09T03:27:00.974Z,8.00
2018-08-09T03:28:01.007Z,8.00
2018-08-09T03:29:00.895Z,8.00
2018-08-09T03:30:01.178Z,12.00
2018-08-09T03:31:00.923Z,16.00
2018-08-09T03:32:00.855Z,16.00
2018-08-09T03:33:00.893Z,16.00
2018-08-09T03:35:00.823Z,20.00
2018-08-09T03:38:01.132Z,28.00
2018-08-09T03:39:00.786Z,32.00
2018-08-09T03:40:00.787Z,36.00
2018-08-09T03:42:00.838Z,44.00
2018-08-09T03:44:03.108Z,56.00
2018-08-09T03:45:01.042Z,64.00
2018-08-09T03:46:00.680Z,72.00
2018-08-09T03:47:00.667Z,76.00
2018-08-09T03:48:00.653Z,80.00
2018-08-09T03:49:00.649Z,88.00
2018-08-09T03:50:00.779Z,96.00
2018-08-09T03:51:00.619Z,104.00
2018-08-09T03:52:00.610Z,112.00
2018-08-09T03:53:00.592Z,124.00
2018-08-09T03:54:00.586Z,128.00
2018-08-09T03:55:01.268Z,140.00
2018-08-09T03:56:00.609Z,152.00
2018-08-09T03:57:00.850Z,160.00
2018-08-09T03:58:00.532Z,164.00
2018-08-09T03:59:00.523Z,176.00
2018-08-09T04:00:00.519Z,196.00
2018-08-09T04:02:00.587Z,216.00
2018-08-09T04:03:00.778Z,216.00
2018-08-09T04:04:00.510Z,224.00
2018-08-09T04:05:00.548Z,240.00
2018-08-09T04:06:00.434Z,248.00
2018-08-09T04:07:00.475Z,264.00
2018-08-09T04:08:00.412Z,292.00
2018-08-09T04:09:00.399Z,316.00
2018-08-09T04:10:00.704Z,340.00
2018-08-09T04:11:00.380Z,340.00
2018-08-09T04:12:00.761Z,336.00
2018-08-09T04:13:00.493Z,340.00
2018-08-09T04:15:00.324Z,372.00
2018-08-09T04:16:00.320Z,380.00
2018-08-09T04:18:00.609Z,412.00
2018-08-09T04:19:00.318Z,424.00
2018-08-09T04:21:00.244Z,476.00
2018-08-09T04:22:00.232Z,504.00
2018-08-09T04:25:00.199Z,512.00
2018-08-09T04:26:00.602Z,520.00
2018-08-09T04:27:00.230Z,532.00
2018-08-09T04:28:00.180Z,544.00
2018-08-09T04:29:00.417Z,580.00
2018-08-09T04:30:00.145Z,636.00
2018-08-09T04:31:00.122Z,712.00
2018-08-09T04:32:00.120Z,756.00
2018-08-09T04:33:00.666Z,804.00
2018-08-09T04:36:00.060Z,744.00
2018-08-09T04:37:00.050Z,760.00
2018-08-09T04:38:00.050Z,764.00
2018-08-09T04:39:00.023Z,728.00
2018-08-09T04:40:00.381Z,708.00
2018-08-09T04:41:00.083Z,716.00
2018-08-09T04:42:00.052Z,752.00
2018-08-09T04:42:59.997Z,812.00
2018-08-09T04:43:59.983Z,860.00
2018-08-09T04:45:00.072Z,880.00
2018-08-09T04:47:00.227Z,944.00
2018-08-09T04:48:00.066Z,992.00
2018-08-09T04:49:00.128Z,1064.00
2018-08-09T04:49:59.889Z,1124.00
2018-08-09T04:50:59.877Z,1128.00
2018-08-09T04:52:00.066Z,1076.00
2018-08-09T04:52:59.932Z,1032.00
2018-08-09T04:54:00.916Z,984.00
2018-08-09T04:55:00.024Z,980.00
2018-08-09T04:56:00.656Z,964.00
2018-08-09T04:57:01.437Z,1056.00
2018-08-09T04:58:00.634Z,1188.00
2018-08-09T04:59:02.613Z,1372.00
2018-08-09T05:00:59.948Z,1584.00
2018-08-09T05:02:00.366Z,1580.00
2018-08-09T05:02:59.893Z,1628.00
2018-08-09T05:04:59.772Z,1528.00
2018-08-09T05:06:59.679Z,1232.00
2018-08-09T05:07:59.766Z,1240.00
2018-08-09T05:09:00.106Z,1248.00
2018-08-09T05:09:59.639Z,1256.00
2018-08-09T05:10:59.685Z,1260.00
2018-08-09T05:11:59.631Z,1268.00
2018-08-09T05:12:59.614Z,1296.00
2018-08-09T05:13:59.595Z,1320.00
2018-08-09T05:15:19.360Z,1344.00
2018-08-09T05:19:59.619Z,1420.00
2018-08-09T05:20:59.672Z,1444.00
2018-08-09T05:21:59.807Z,1460.00
2018-08-09T05:22:59.549Z,1464.00
2018-08-09T05:23:59.537Z,1472.00
2018-08-09T05:24:59.577Z,1476.00
2018-08-09T05:25:59.521Z,1488.00
2018-08-09T05:26:59.548Z,1496.00
2018-08-09T05:27:59.862Z,1512.00
2018-08-09T05:29:59.440Z,1560.00
2018-08-09T05:30:59.494Z,1588.00
2018-08-09T05:31:59.584Z,1620.00
2018-08-09T05:32:59.491Z,1644.00
2018-08-09T05:33:59.812Z,1652.00
2018-08-09T05:34:59.504Z,1668.00
2018-08-09T05:35:59.345Z,1700.00
2018-08-09T05:36:59.337Z,1716.00
2018-08-09T05:37:59.327Z,1736.00
2018-08-09T05:38:59.528Z,1768.00
2018-08-09T05:39:59.661Z,1796.00
2018-08-09T05:41:59.377Z,1812.00
2018-08-09T05:42:59.850Z,1800.00
2018-08-09T05:43:59.251Z,1800.00
2018-08-09T05:44:59.389Z,1808.00
2018-08-09T05:45:59.238Z,1824.00
2018-08-09T05:47:59.624Z,1876.00
2018-08-09T05:49:59.179Z,1924.00
2018-08-09T05:52:59.429Z,1912.00
2018-08-09T05:54:59.436Z,1932.00
2018-08-09T05:55:59.105Z,1912.00
2018-08-09T05:56:59.154Z,1928.00
2018-08-09T05:57:59.082Z,1936.00
2018-08-09T05:59:59.122Z,1964.00
2018-08-09T06:00:59.106Z,1984.00
2018-08-09T06:02:59.480Z,2040.00
2018-08-09T06:03:59.110Z,2068.00
2018-08-09T06:04:59.665Z,2128.00
2018-08-09T06:05:59.775Z,2168.00
2018-08-09T06:06:59.032Z,2204.00
2018-08-09T06:08:58.989Z,2216.00
2018-08-09T06:09:59.297Z,2300.00
2018-08-09T06:10:58.950Z,2284.00
2018-08-09T06:11:59.081Z,2304.00
2018-08-09T06:12:58.907Z,2316.00
2018-08-09T06:13:58.916Z,2348.00
2018-08-09T06:14:58.988Z,2400.00
2018-08-09T06:15:58.880Z,2488.00
2018-08-09T06:17:58.997Z,2760.00
2018-08-09T06:18:59.150Z,2856.00
2018-08-09T06:19:58.918Z,3108.00
2018-08-09T06:21:58.964Z,3284.00
2018-08-09T06:22:59.127Z,3464.00
2018-08-09T06:23:59.186Z,3384.00
2018-08-09T06:24:58.773Z,3288.00
2018-08-09T06:26:58.754Z,2996.00
2018-08-09T06:27:58.747Z,2876.00
2018-08-09T06:28:58.726Z,2828.00
2018-08-09T06:30:00.202Z,2996.00
2018-08-09T06:30:59.064Z,2900.00
2018-08-09T06:31:58.705Z,2704.00
2018-08-09T06:32:58.694Z,2640.00
2018-08-09T06:33:58.873Z,2588.00
2018-08-09T06:34:58.668Z,2708.00
2018-08-09T06:35:58.760Z,2768.00
2018-08-09T06:36:58.944Z,2744.00
2018-08-09T06:37:58.777Z,2692.00
2018-08-09T06:40:58.597Z,2956.00
2018-08-09T06:41:58.646Z,3016.00
2018-08-09T06:42:58.990Z,3340.00
2018-08-09T06:43:58.570Z,3604.00
2018-08-09T06:44:58.558Z,3364.00
2018-08-09T06:45:58.543Z,3068.00
2018-08-09T06:46:58.588Z,2920.00
2018-08-09T06:47:58.777Z,2944.00
2018-08-09T06:48:58.866Z,2908.00
2018-08-09T06:50:58.841Z,2976.00
2018-08-09T06:51:58.861Z,2996.00
2018-08-09T06:53:01.134Z,3108.00
2018-08-09T06:54:59.220Z,3440.00
2018-08-09T06:56:58.524Z,4160.00
2018-08-09T06:57:58.421Z,4332.00
2018-08-09T06:58:58.409Z,4004.00
2018-08-09T06:59:58.937Z,4080.00
2018-08-09T07:01:00.507Z,3884.00
2018-08-09T07:01:58.766Z,3596.00
2018-08-09T07:02:58.518Z,3624.00
2018-08-09T07:04:01.391Z,3580.00
2018-08-09T07:04:58.713Z,3616.00
2018-08-09T07:05:58.684Z,3608.00
2018-08-09T07:06:58.680Z,3308.00
2018-08-09T07:07:58.375Z,3620.00
2018-08-09T07:08:58.495Z,3628.00
2018-08-09T07:09:58.951Z,3664.00
2018-08-09T07:10:58.282Z,3700.00
2018-08-09T07:11:58.320Z,3576.00
2018-08-09T07:12:58.771Z,3612.00
2018-08-09T07:13:58.579Z,3616.00
2018-08-09T07:14:58.465Z,3532.00
2018-08-09T07:15:58.421Z,3584.00
2018-08-09T07:16:58.437Z,3528.00
2018-08-09T07:17:58.317Z,3436.00
2018-08-09T07:20:04.016Z,3576.00
2018-08-09T07:21:01.271Z,3588.00
2018-08-09T07:23:00.745Z,3660.00
2018-08-09T07:23:59.619Z,3720.00
2018-08-09T07:24:58.281Z,3752.00
2018-08-09T07:25:58.151Z,3756.00
2018-08-09T07:26:59.067Z,3636.00
2018-08-09T07:27:59.539Z,3800.00
2018-08-09T07:28:59.791Z,3852.00
2018-08-09T07:29:58.149Z,3988.00
2018-08-09T07:30:59.642Z,4224.00
2018-08-09T07:32:58.407Z,4572.00
2018-08-09T07:35:44.144Z,4556.00
2018-08-09T07:36:44.229Z,4552.00
2018-08-09T07:37:43.970Z,4512.00
2018-08-09T07:38:43.923Z,4540.00
2018-08-09T07:39:43.802Z,4464.00
2018-08-09T07:40:44.087Z,4524.00
2018-08-09T07:41:43.820Z,4568.00
2018-08-09T07:42:43.804Z,4552.00
2018-08-09T07:43:43.800Z,5076.00
2018-08-09T07:44:43.715Z,4708.00
2018-08-09T07:45:43.699Z,4724.00
2018-08-09T07:46:44.048Z,4656.00
2018-08-09T07:47:43.982Z,4660.00
2018-08-09T07:48:43.676Z,4516.00
2018-08-09T07:49:43.661Z,4548.00
2018-08-09T07:50:43.665Z,4500.00
2018-08-09T07:52:02.855Z,4452.00
2018-08-09T07:52:43.954Z,4444.00
2018-08-09T07:53:43.671Z,4492.00
2018-08-09T07:54:43.625Z,4556.00
2018-08-09T07:55:43.716Z,4552.00
2018-08-09T07:56:43.613Z,4604.00
2018-08-09T07:57:43.606Z,5200.00
2018-08-09T07:58:43.581Z,4780.00
2018-08-09T07:59:43.924Z,4840.00
2018-08-09T08:01:43.563Z,5044.00
2018-08-09T08:02:43.558Z,5040.00
2018-08-09T08:03:43.632Z,4924.00
2018-08-09T08:04:43.593Z,5084.00
2018-08-09T08:05:43.600Z,5032.00
2018-08-09T08:06:43.825Z,4992.00
2018-08-09T08:07:43.619Z,5108.00
2018-08-09T08:08:43.498Z,5004.00
2018-08-09T08:10:43.604Z,5204.00
2018-08-09T08:11:43.540Z,5260.00
2018-08-09T08:12:44.360Z,5292.00
2018-08-09T08:13:43.479Z,5300.00
2018-08-09T08:14:43.450Z,5404.00
2018-08-09T08:15:45.477Z,5444.00
2018-08-09T08:17:44.128Z,5368.00
2018-08-09T08:19:43.429Z,5600.00
2018-08-09T08:20:43.473Z,5648.00
2018-08-09T08:21:43.494Z,5728.00
2018-08-09T08:22:43.412Z,5584.00
2018-08-09T08:23:43.641Z,5704.00
2018-08-09T08:24:43.438Z,5776.00
2018-08-09T08:25:43.762Z,5964.00
2018-08-09T08:26:43.436Z,6040.00
2018-08-09T08:27:43.408Z,6128.00
2018-08-09T08:28:43.395Z,6176.00
2018-08-09T08:30:43.360Z,6280.00
2018-08-09T08:31:43.662Z,6296.00
2018-08-09T08:32:43.664Z,6312.00
2018-08-09T08:33:45.099Z,6376.00
2018-08-09T08:34:43.353Z,6408.00
2018-08-09T08:35:43.414Z,6356.00
2018-08-09T08:36:43.302Z,6384.00
2018-08-09T08:37:43.613Z,6476.00
2018-08-09T08:38:43.288Z,6528.00
2018-08-09T08:42:43.281Z,6972.00
2018-08-09T08:43:43.637Z,6972.00
2018-08-09T08:44:43.351Z,7044.00
2018-08-09T08:45:43.277Z,7124.00
2018-08-09T08:46:43.343Z,7156.00
2018-08-09T08:48:43.282Z,7224.00
2018-08-09T08:49:43.535Z,7276.00
2018-08-09T08:50:43.222Z,7332.00
2018-08-09T08:51:43.229Z,7380.00
2018-08-09T08:52:43.217Z,7432.00
2018-08-09T08:53:43.282Z,7496.00
2018-08-09T08:54:43.492Z,7568.00
2018-08-09T08:55:43.416Z,7608.00
2018-08-09T08:56:43.497Z,7768.00
2018-08-09T08:57:43.397Z,7832.00
2018-08-09T08:58:43.202Z,7892.00
2018-08-09T08:59:43.381Z,8068.00
2018-08-09T09:00:43.180Z,8076.00
2018-08-09T09:01:43.172Z,8020.00
2018-08-09T09:02:44.100Z,8284.00
2018-08-09T09:03:47.570Z,8476.00
2018-08-09T09:04:45.622Z,8416.00
2018-08-09T09:06:49.359Z,8532.00
2018-08-09T09:08:43.495Z,8684.00
2018-08-09T09:09:43.165Z,8564.00
2018-08-09T09:10:43.147Z,8644.00
2018-08-09T09:11:43.189Z,8680.00
2018-08-09T09:12:43.145Z,8732.00
2018-08-09T09:13:43.189Z,8732.00
2018-08-09T09:14:43.127Z,8424.00
2018-08-09T09:16:43.438Z,8876.00
2018-08-09T09:17:46.257Z,8972.00
2018-08-09T09:18:43.146Z,9016.00
2018-08-09T09:19:43.706Z,8940.00
2018-08-09T09:20:43.308Z,8924.00
2018-08-09T09:22:45.040Z,8960.00
2018-08-09T09:23:43.921Z,9008.00
2018-08-09T09:24:54.207Z,9176.00
2018-08-09T09:26:43.205Z,9268.00
2018-08-09T09:28:43.461Z,9652.00
2018-08-09T09:29:50.292Z,9696.00
2018-08-09T09:30:43.266Z,9756.00
2018-08-09T09:32:43.134Z,9924.00
2018-08-09T09:33:43.248Z,9996.00
2018-08-09T09:34:43.456Z,10076.00
2018-08-09T09:35:43.134Z,10372.00
2018-08-09T09:36:43.096Z,10380.00
2018-08-09T09:37:43.093Z,10484.00
2018-08-09T09:38:43.075Z,10584.00
2018-08-09T09:40:43.130Z,10996.00
2018-08-09T09:41:43.369Z,11188.00
2018-08-09T09:42:43.084Z,11204.00
2018-08-09T09:43:43.068Z,11420.00
2018-08-09T09:44:43.074Z,11680.00
2018-08-09T09:46:43.317Z,13316.00
2018-08-09T09:47:43.367Z,12928.00
2018-08-09T09:48:56.203Z,13204.00
2018-08-09T09:49:43.110Z,13388.00
2018-08-09T09:50:43.062Z,13772.00
2018-08-09T09:51:43.079Z,14024.00
2018-08-09T09:52:43.110Z,14420.00
2018-08-09T09:53:43.361Z,14816.00
2018-08-09T09:55:43.154Z,15168.00
2018-08-09T09:56:43.074Z,15552.00
2018-08-09T09:57:43.065Z,15840.00
2018-08-09T09:58:43.108Z,16128.00
2018-08-09T09:59:43.357Z,16384.00
2018-08-09T10:01:43.102Z,17024.00
2018-08-09T10:02:43.065Z,17408.00
2018-08-09T10:03:43.052Z,17728.00
2018-08-09T10:04:43.131Z,18112.00
2018-08-09T10:05:43.415Z,18432.00
2018-08-09T10:06:43.128Z,18464.00
2018-08-09T10:08:43.078Z,18912.00
2018-08-09T10:09:43.192Z,19296.00
2018-08-09T10:10:43.131Z,19424.00
2018-08-09T10:11:43.369Z,19200.00
2018-08-09T10:12:43.092Z,20032.00
2018-08-09T10:13:43.204Z,19872.00
2018-08-09T10:15:43.058Z,19680.00
2018-08-09T10:16:43.134Z,19840.00
2018-08-09T10:17:43.467Z,20192.00
2018-08-09T10:18:43.878Z,20320.00
2018-08-09T10:19:43.126Z,20448.00
2018-08-09T10:20:43.068Z,20512.00
2018-08-09T10:21:43.219Z,20096.00
2018-08-09T10:22:43.117Z,20032.00
2018-08-09T10:23:43.372Z,19712.00
2018-08-09T10:24:43.099Z,20064.00
2018-08-09T10:25:43.071Z,19840.00
2018-08-09T10:26:44.357Z,20256.00
2018-08-09T10:27:43.128Z,19904.00
2018-08-09T10:28:43.137Z,20416.00
2018-08-09T10:29:43.070Z,20192.00
2018-08-09T10:30:43.386Z,20288.00
2018-08-09T10:31:43.125Z,20992.00
2018-08-09T10:32:43.076Z,21152.00
2018-08-09T10:33:43.132Z,20672.00
2018-08-09T10:34:43.174Z,20800.00
2018-08-09T10:36:43.382Z,20608.00
2018-08-09T10:37:43.091Z,20672.00
2018-08-09T10:38:43.097Z,20928.00
2018-08-09T10:40:43.090Z,20928.00
2018-08-09T10:41:43.088Z,21024.00
2018-08-09T10:42:43.469Z,21280.00
2018-08-09T10:43:43.303Z,21344.00
2018-08-09T10:44:43.178Z,21504.00
2018-08-09T10:45:43.263Z,21824.00
2018-08-09T10:46:43.226Z,21952.00
2018-08-09T10:47:43.103Z,21696.00
2018-08-09T10:48:43.406Z,21856.00
2018-08-09T10:49:43.100Z,21760.00
2018-08-09T10:51:43.180Z,21920.00
2018-08-09T10:52:43.404Z,21760.00
2018-08-09T10:53:43.230Z,21600.00
2018-08-09T10:54:43.425Z,22688.00
2018-08-09T10:55:43.158Z,18816.00
2018-08-09T10:56:43.264Z,24224.00
2018-08-09T10:57:43.119Z,24608.00
2018-08-09T10:58:43.118Z,24608.00
2018-08-09T10:59:43.139Z,24288.00
2018-08-09T11:00:43.445Z,24096.00
2018-08-09T11:01:43.205Z,24288.00
2018-08-09T11:02:43.200Z,24640.00
2018-08-09T11:03:43.169Z,24832.00
2018-08-09T11:04:43.184Z,24576.00
2018-08-09T11:05:43.151Z,24768.00
2018-08-09T11:06:43.593Z,25120.00
2018-08-09T11:09:43.521Z,24832.00
2018-08-09T11:11:43.202Z,25248.00
2018-08-09T11:13:43.204Z,26528.00
2018-08-09T11:14:43.162Z,26592.00
2018-08-09T11:15:43.416Z,26944.00
2018-08-09T11:16:43.279Z,27520.00
2018-08-09T11:17:43.402Z,27968.00
2018-08-09T11:18:43.327Z,28064.00
2018-08-09T11:19:43.491Z,28544.00
2018-08-09T11:20:43.213Z,28480.00
2018-08-09T11:21:43.397Z,28416.00
2018-08-09T11:22:43.870Z,28160.00
2018-08-09T11:23:44.078Z,28928.00
2018-08-09T11:24:45.396Z,29248.00
2018-08-09T11:25:43.566Z,29344.00
2018-08-09T11:27:43.267Z,26624.00
2018-08-09T11:28:43.236Z,25568.00
2018-08-09T11:29:43.207Z,19712.00
2018-08-09T11:31:43.981Z,23680.00
2018-08-09T11:32:44.045Z,25728.00
2018-08-09T11:33:45.418Z,33024.00
2018-08-09T11:34:43.492Z,34016.00
2018-08-09T11:36:44.529Z,25888.00
2018-08-09T11:37:43.806Z,24800.00
2018-08-09T11:38:43.882Z,23456.00
2018-08-09T11:39:43.358Z,21952.00
2018-08-09T11:40:43.366Z,26880.00
2018-08-09T11:41:43.296Z,31392.00
2018-08-09T11:42:43.363Z,35904.00
2018-08-09T11:43:43.576Z,31840.00
2018-08-09T11:44:43.272Z,33696.00
2018-08-09T11:45:43.332Z,33920.00
2018-08-09T11:46:43.869Z,30624.00
2018-08-09T11:47:43.701Z,33056.00
2018-08-09T11:48:43.255Z,36000.00
2018-08-09T11:49:43.380Z,32896.00
2018-08-09T11:50:43.758Z,35808.00
2018-08-09T11:51:43.616Z,35552.00
2018-08-09T11:52:43.544Z,25376.00
2018-08-09T11:53:43.322Z,32064.00
2018-08-09T11:54:43.280Z,27200.00
2018-08-09T11:55:43.274Z,35648.00
2018-08-09T11:56:43.722Z,34624.00
2018-08-09T11:57:43.341Z,32320.00
2018-08-09T11:58:43.432Z,29088.00
2018-08-09T11:59:43.548Z,27072.00
2018-08-09T12:00:43.322Z,18048.00
2018-08-09T12:01:43.491Z,18688.00
2018-08-09T12:02:43.504Z,19104.00
2018-08-09T12:03:43.892Z,20448.00
2018-08-09T12:04:43.557Z,21632.00
2018-08-09T12:05:43.503Z,21088.00
2018-08-09T12:06:43.484Z,21216.00
2018-08-09T12:07:43.311Z,24128.00
2018-08-09T12:08:43.385Z,26848.00
2018-08-09T12:09:43.730Z,27424.00
2018-08-09T12:10:43.637Z,29280.00
2018-08-09T12:11:43.331Z,35072.00
2018-08-09T12:12:43.312Z,35712.00
2018-08-09T12:13:43.319Z,35168.00
2018-08-09T12:14:43.316Z,32896.00
2018-08-09T12:15:43.367Z,28064.00
2018-08-09T12:17:43.632Z,31584.00
2018-08-09T12:18:43.381Z,31584.00
2018-08-09T12:19:43.408Z,30048.00
2018-08-09T12:20:43.390Z,29056.00
2018-08-09T12:21:43.570Z,29632.00
2018-08-09T12:22:43.327Z,29504.00
2018-08-09T12:24:43.768Z,29984.00
2018-08-09T12:25:43.598Z,32160.00
2018-08-09T12:26:43.449Z,30400.00
2018-08-09T12:27:43.659Z,33024.00
2018-08-09T12:28:43.355Z,29504.00
2018-08-09T12:29:43.450Z,28704.00
2018-08-09T12:30:43.878Z,28256.00
2018-08-09T12:31:44.074Z,28128.00
2018-08-09T12:32:43.359Z,27872.00
2018-08-09T12:33:43.415Z,28576.00
2018-08-09T12:34:43.438Z,28288.00
2018-08-09T12:35:43.377Z,27840.00
2018-08-09T12:36:43.684Z,26656.00
2018-08-09T12:37:43.436Z,25248.00
2018-08-09T12:38:43.492Z,25952.00
2018-08-09T12:39:43.453Z,24288.00
2018-08-09T12:41:43.495Z,24000.00
2018-08-09T12:42:43.734Z,23968.00
2018-08-09T12:43:43.411Z,24736.00
2018-08-09T12:44:43.392Z,11564.00
2018-08-09T12:45:43.448Z,26144.00
2018-08-09T12:46:43.427Z,26016.00
2018-08-09T12:47:43.405Z,25440.00
2018-08-09T12:49:02.911Z,25472.00
2018-08-09T12:49:43.413Z,25120.00
2018-08-09T12:50:43.430Z,24992.00
2018-08-09T12:51:43.463Z,25024.00
2018-08-09T12:52:43.426Z,25152.00
2018-08-09T12:53:43.420Z,25056.00
2018-08-09T12:54:43.738Z,25024.00
2018-08-09T12:55:43.423Z,24864.00
2018-08-09T12:56:43.425Z,24992.00
2018-08-09T12:57:43.478Z,25216.00
2018-08-09T12:58:43.433Z,25120.00
2018-08-09T12:59:43.441Z,25440.00
2018-08-09T13:00:43.746Z,25728.00
2018-08-09T13:01:43.441Z,26656.00
2018-08-09T13:02:43.453Z,25408.00
2018-08-09T13:03:43.515Z,19008.00
2018-08-09T13:04:43.469Z,16736.00
2018-08-09T13:05:43.493Z,18944.00
2018-08-09T13:06:43.823Z,18336.00
2018-08-09T13:07:43.508Z,15948.00
2018-08-09T13:08:43.555Z,24704.00
2018-08-09T13:09:43.558Z,27392.00
2018-08-09T13:10:43.488Z,25920.00
2018-08-09T13:11:43.474Z,26656.00
2018-08-09T13:12:43.784Z,27776.00
2018-08-09T13:13:43.479Z,24832.00
2018-08-09T13:14:43.492Z,28544.00
2018-08-09T13:15:43.549Z,28608.00
2018-08-09T13:16:43.586Z,26752.00
2018-08-09T13:17:43.530Z,27584.00
2018-08-09T13:18:43.796Z,17792.00
2018-08-09T13:19:43.496Z,15264.00
2018-08-09T13:20:43.563Z,14060.00
2018-08-09T13:21:43.953Z,13276.00
2018-08-09T13:22:43.818Z,13508.00
2018-08-09T13:23:43.635Z,14260.00
2018-08-09T13:24:44.263Z,15768.00
2018-08-09T13:25:44.051Z,16800.00
2018-08-09T13:26:43.514Z,16576.00
2018-08-09T13:27:43.562Z,15904.00
2018-08-09T13:28:43.511Z,14648.00
2018-08-09T13:29:43.723Z,14164.00
2018-08-09T13:30:43.894Z,14024.00
2018-08-09T13:31:43.647Z,14284.00
2018-08-09T13:32:43.516Z,14888.00
2018-08-09T13:33:43.622Z,15044.00
2018-08-09T13:34:43.541Z,14576.00
2018-08-09T13:35:43.536Z,14356.00
2018-08-09T13:36:43.818Z,13672.00
2018-08-09T13:37:43.516Z,14624.00
2018-08-09T13:38:43.524Z,12060.00
2018-08-09T13:39:43.578Z,10880.00
2018-08-09T13:40:43.566Z,10020.00
2018-08-09T13:43:43.513Z,9868.00
2018-08-09T13:44:43.615Z,9456.00
2018-08-09T13:45:43.578Z,9776.00
2018-08-09T13:46:43.540Z,9512.00
2018-08-09T13:48:44.549Z,10920.00
2018-08-09T13:49:43.587Z,10176.00
2018-08-09T13:51:43.581Z,11528.00
2018-08-09T13:52:44.005Z,12448.00
2018-08-09T13:53:43.633Z,13712.00
2018-08-09T13:54:44.325Z,13948.00
2018-08-09T13:55:45.559Z,15176.00
2018-08-09T13:56:44.954Z,16096.00
2018-08-09T13:57:43.827Z,18144.00
2018-08-09T13:58:44.040Z,16768.00
2018-08-09T14:00:43.805Z,16256.00
2018-08-09T14:02:43.680Z,20512.00
2018-08-09T14:03:43.542Z,27488.00
2018-08-09T14:04:43.520Z,19648.00
2018-08-09T14:05:43.516Z,30816.00
2018-08-09T14:06:43.805Z,19616.00
2018-08-09T14:07:43.490Z,22240.00